Time,TemperatureF,DewpointF,PressureIn,WindDirection,WindDirectionDegrees,WindSpeedMPH,WindSpeedGustMPH,Humidity,HourlyPrecipIn,Conditions,Clouds,dailyrainin,SoftwareType,DateUTC
2013-07-27 00:00:00,64.2,58.9,29.98,West,261,0.0,0.0,83,0.00,,,0.00,Wunderground v.1.15,2013-07-27 04:00:00,
2013-07-27 00:05:00,64.1,59.2,29.98,West,261,0.0,0.0,84,0.00,,,0.00,Wunderground v.1.15,2013-07-27 04:05:00,
2013-07-27 00:15:00,63.8,59.2,29.98,West,261,0.0,0.0,85,0.00,,,0.00,Wunderground v.1.15,2013-07-27 04:15:00,
2013-07-27 00:20:00,63.7,59.1,29.98,West,261,0.0,0.0,85,0.00,,,0.00,Wunderground v.1.15,2013-07-27 04:20:00,
2013-07-27 00:30:00,63.4,59.1,29.98,WNW,283,0.0,0.0,86,0.00,,,0.00,Wunderground v.1.15,2013-07-27 04:30:00,
2013-07-27 00:35:00,63.2,58.9,29.97,WNW,283,0.0,0.0,86,0.00,,,0.00,Wunderground v.1.15,2013-07-27 04:35:00,
2013-07-27 00:45:00,63.0,59.1,29.97,WNW,283,0.0,0.0,87,0.00,,,0.00,Wunderground v.1.15,2013-07-27 04:45:00,
2013-07-27 00:55:00,62.7,58.8,29.97,WNW,283,0.0,0.0,87,0.00,,,0.00,Wunderground v.1.15,2013-07-27 04:55:00,
2013-07-27 01:05:00,62.5,58.6,29.97,WNW,283,0.0,0.0,87,0.00,,,0.00,Wunderground v.1.15,2013-07-27 05:05:00,
2013-07-27 01:15:00,62.3,59.0,29.97,WNW,283,0.0,0.0,89,0.00,,,0.00,Wunderground v.1.15,2013-07-27 05:15:00,
2013-07-27 01:25:00,62.0,58.7,29.96,WNW,283,0.0,0.0,89,0.00,,,0.00,Wunderground v.1.15,2013-07-27 05:25:00,
2013-07-27 01:35:00,61.7,58.7,29.96,WNW,283,0.0,0.0,90,0.00,,,0.00,Wunderground v.1.15,2013-07-27 05:35:00,
2013-07-27 01:45:00,61.5,58.5,29.96,WNW,283,0.0,0.0,90,0.00,,,0.00,Wunderground v.1.15,2013-07-27 05:45:00,
2013-07-27 01:50:00,61.4,58.7,29.96,WNW,283,0.0,0.0,91,0.00,,,0.00,Wunderground v.1.15,2013-07-27 05:50:00,
2013-07-27 02:00:00,61.2,58.6,29.96,WNW,283,0.0,0.0,91,0.00,,,0.00,Wunderground v.1.15,2013-07-27 06:00:00,
2013-07-27 02:05:00,61.2,58.6,29.96,WNW,283,0.0,0.0,91,0.00,,,0.00,Wunderground v.1.15,2013-07-27 06:05:00,
2013-07-27 02:15:00,61.2,58.9,29.96,WNW,289,0.0,0.0,92,0.00,,,0.00,Wunderground v.1.15,2013-07-27 06:15:00,
2013-07-27 02:20:00,61.1,58.8,29.95,WNW,289,0.0,0.0,92,0.00,,,0.00,Wunderground v.1.15,2013-07-27 06:20:00,
2013-07-27 02:30:00,61.0,58.7,29.95,WNW,289,0.0,0.0,92,0.00,,,0.00,Wunderground v.1.15,2013-07-27 06:30:00,
2013-07-27 02:40:00,60.8,58.5,29.95,WNW,289,0.0,0.0,92,0.00,,,0.00,Wunderground v.1.15,2013-07-27 06:40:00,
2013-07-27 02:50:00,60.6,58.6,29.95,WNW,289,0.0,0.0,93,0.00,,,0.00,Wunderground v.1.15,2013-07-27 06:50:00,
2013-07-27 03:00:00,60.4,58.4,29.95,North,4,0.0,0.0,93,0.00,,,0.00,Wunderground v.1.15,2013-07-27 07:00:00,
2013-07-27 03:05:00,60.4,58.4,29.95,North,4,0.0,0.0,93,0.00,,,0.00,Wunderground v.1.15,2013-07-27 07:05:00,
2013-07-27 03:15:00,60.4,58.4,29.94,North,4,0.0,0.0,93,0.00,,,0.00,Wunderground v.1.15,2013-07-27 07:15:00,
2013-07-27 03:25:00,60.3,58.6,29.94,North,4,0.0,0.0,94,0.00,,,0.00,Wunderground v.1.15,2013-07-27 07:25:00,
2013-07-27 03:35:00,60.3,58.6,29.94,North,4,0.0,0.0,94,0.00,,,0.00,Wunderground v.1.15,2013-07-27 07:35:00,
2013-07-27 03:40:00,60.2,58.5,29.94,North,4,0.0,0.0,94,0.00,,,0.00,Wunderground v.1.15,2013-07-27 07:40:00,
2013-07-27 03:50:00,60.2,58.5,29.94,North,4,0.0,0.0,94,0.00,,,0.00,Wunderground v.1.15,2013-07-27 07:50:00,
2013-07-27 04:00:00,60.0,58.3,29.94,North,4,0.0,0.0,94,0.00,,,0.00,Wunderground v.1.15,2013-07-27 08:00:00,
2013-07-27 04:05:00,59.9,58.2,29.94,North,4,0.0,0.0,94,0.00,,,0.00,Wunderground v.1.15,2013-07-27 08:05:00,
2013-07-27 04:15:00,59.7,58.3,29.94,North,4,0.0,0.0,95,0.00,,,0.00,Wunderground v.1.15,2013-07-27 08:15:00,
2013-07-27 04:25:00,59.7,58.3,29.94,North,4,0.0,0.0,95,0.00,,,0.00,Wunderground v.1.15,2013-07-27 08:25:00,
2013-07-27 04:35:00,59.7,58.3,29.93,North,4,0.0,0.0,95,0.00,,,0.00,Wunderground v.1.15,2013-07-27 08:35:00,
2013-07-27 04:40:00,59.7,58.3,29.93,North,4,0.0,0.0,95,0.00,,,0.00,Wunderground v.1.15,2013-07-27 08:40:00,
2013-07-27 04:50:00,59.7,58.3,29.93,North,4,0.0,0.0,95,0.00,,,0.00,Wunderground v.1.15,2013-07-27 08:50:00,
2013-07-27 05:00:00,59.6,58.2,29.93,North,4,0.0,0.0,95,0.00,,,0.00,Wunderground v.1.15,2013-07-27 09:00:00,
2013-07-27 05:05:00,59.5,58.1,29.93,North,4,0.0,0.0,95,0.00,,,0.00,Wunderground v.1.15,2013-07-27 09:05:00,
2013-07-27 05:15:00,59.5,58.4,29.93,North,4,0.0,0.0,96,0.00,,,0.00,Wunderground v.1.15,2013-07-27 09:15:00,
2013-07-27 05:25:00,59.5,58.4,29.92,North,4,0.0,0.0,96,0.00,,,0.00,Wunderground v.1.15,2013-07-27 09:25:00,
2013-07-27 05:35:00,59.6,58.5,29.93,North,4,0.0,0.0,96,0.00,,,0.00,Wunderground v.1.15,2013-07-27 09:35:00,
2013-07-27 05:40:00,59.6,58.5,29.93,North,4,0.0,0.0,96,0.00,,,0.00,Wunderground v.1.15,2013-07-27 09:40:00,
2013-07-27 05:50:00,59.6,58.5,29.93,North,4,0.0,0.0,96,0.00,,,0.00,Wunderground v.1.15,2013-07-27 09:50:00,
2013-07-27 06:00:00,59.7,58.6,29.93,North,4,0.0,0.0,96,0.00,,,0.00,Wunderground v.1.15,2013-07-27 10:00:00,
2013-07-27 06:05:00,59.9,58.8,29.93,North,4,0.0,0.0,96,0.00,,,0.00,Wunderground v.1.15,2013-07-27 10:05:00,
2013-07-27 06:15:00,60.0,59.1,29.93,North,4,0.0,1.0,97,0.00,,,0.00,Wunderground v.1.15,2013-07-27 10:15:00,
2013-07-27 06:25:00,60.0,58.9,29.93,North,4,0.0,0.0,96,0.00,,,0.00,Wunderground v.1.15,2013-07-27 10:25:00,
2013-07-27 06:30:00,59.9,58.8,29.93,North,4,0.0,0.0,96,0.00,,,0.00,Wunderground v.1.15,2013-07-27 10:30:00,
2013-07-27 06:40:00,59.8,58.7,29.93,North,4,0.0,0.0,96,0.00,,,0.00,Wunderground v.1.15,2013-07-27 10:40:00,
2013-07-27 06:50:00,59.8,58.7,29.93,North,4,0.0,0.0,96,0.00,,,0.00,Wunderground v.1.15,2013-07-27 10:50:00,
2013-07-27 06:55:00,59.9,59.0,29.93,North,4,0.0,0.0,97,0.00,,,0.00,Wunderground v.1.15,2013-07-27 10:55:00,
2013-07-27 07:05:00,60.0,59.1,29.93,North,4,0.0,0.0,97,0.00,,,0.00,Wunderground v.1.15,2013-07-27 11:05:00,
2013-07-27 07:15:00,60.2,59.3,29.92,North,4,0.0,0.0,97,0.00,,,0.00,Wunderground v.1.15,2013-07-27 11:15:00,
2013-07-27 07:25:00,60.6,59.7,29.93,North,4,0.0,0.0,97,0.00,,,0.00,Wunderground v.1.15,2013-07-27 11:25:00,
2013-07-27 07:30:00,60.8,59.9,29.93,North,4,0.0,0.0,97,0.00,,,0.00,Wunderground v.1.15,2013-07-27 11:30:00,
2013-07-27 07:40:00,60.9,60.0,29.93,North,4,0.0,0.0,97,0.00,,,0.00,Wunderground v.1.15,2013-07-27 11:40:00,
2013-07-27 07:50:00,61.0,59.9,29.94,North,4,0.0,0.0,96,0.00,,,0.00,Wunderground v.1.15,2013-07-27 11:50:00,
2013-07-27 07:55:00,61.0,59.9,29.93,North,4,0.0,0.0,96,0.00,,,0.00,Wunderground v.1.15,2013-07-27 11:55:00,
2013-07-27 08:05:00,61.2,60.1,29.94,North,4,0.0,0.0,96,0.00,,,0.00,Wunderground v.1.15,2013-07-27 12:05:00,
2013-07-27 08:15:00,61.4,60.2,29.94,North,4,0.0,0.0,96,0.00,,,0.00,Wunderground v.1.15,2013-07-27 12:15:00,
2013-07-27 08:25:00,61.9,60.7,29.94,North,4,0.0,0.0,96,0.00,,,0.00,Wunderground v.1.15,2013-07-27 12:25:00,
2013-07-27 08:35:00,62.4,60.9,29.94,North,4,0.0,0.0,95,0.00,,,0.00,Wunderground v.1.15,2013-07-27 12:35:00,
2013-07-27 08:45:00,62.7,60.9,29.94,North,4,0.0,0.0,94,0.00,,,0.00,Wunderground v.1.15,2013-07-27 12:45:00,
2013-07-27 08:50:00,63.0,61.2,29.94,North,4,0.0,0.0,94,0.00,,,0.00,Wunderground v.1.15,2013-07-27 12:50:00,
2013-07-27 09:00:00,63.5,61.7,29.94,North,4,0.0,0.0,94,0.00,,,0.00,Wunderground v.1.15,2013-07-27 13:00:00,
2013-07-27 09:05:00,63.6,61.5,29.94,North,4,0.0,0.0,93,0.00,,,0.00,Wunderground v.1.15,2013-07-27 13:05:00,
2013-07-27 09:15:00,63.9,61.8,29.94,North,4,0.0,1.0,93,0.00,,,0.00,Wunderground v.1.15,2013-07-27 13:15:00,
2013-07-27 09:20:00,64.1,62.0,29.94,North,4,0.0,1.0,93,0.00,,,0.00,Wunderground v.1.15,2013-07-27 13:20:00,
2013-07-27 09:30:00,64.2,62.1,29.94,North,4,0.0,0.0,93,0.00,,,0.00,Wunderground v.1.15,2013-07-27 13:30:00,
2013-07-27 09:40:00,64.2,62.4,29.94,North,4,0.0,1.0,94,0.00,,,0.00,Wunderground v.1.15,2013-07-27 13:40:00,
2013-07-27 09:50:00,64.0,62.2,29.94,North,4,0.0,0.0,94,0.00,,,0.01,Wunderground v.1.15,2013-07-27 13:50:00,
2013-07-27 10:00:00,64.1,62.6,29.94,North,4,0.0,0.0,95,0.04,,,0.02,Wunderground v.1.15,2013-07-27 14:00:00,
2013-07-27 10:05:00,64.1,62.6,29.95,North,4,0.0,0.0,95,0.28,,,0.04,Wunderground v.1.15,2013-07-27 14:05:00,
2013-07-27 10:15:00,64.3,63.1,29.94,NE,43,0.0,1.0,96,0.11,,,0.06,Wunderground v.1.15,2013-07-27 14:15:00,
2013-07-27 10:25:00,64.8,63.6,29.94,NE,43,0.0,1.0,96,0.04,,,0.06,Wunderground v.1.15,2013-07-27 14:25:00,
2013-07-27 10:30:00,64.9,63.7,29.94,NE,43,0.0,0.0,96,0.00,,,0.06,Wunderground v.1.15,2013-07-27 14:30:00,
2013-07-27 10:40:00,65.3,64.1,29.93,East,92,0.0,0.0,96,0.00,,,0.06,Wunderground v.1.15,2013-07-27 14:40:00,
2013-07-27 10:50:00,65.9,65.0,29.93,East,93,0.0,0.0,97,0.00,,,0.06,Wunderground v.1.15,2013-07-27 14:50:00,
2013-07-27 10:55:00,65.9,64.4,29.93,East,93,0.0,0.0,95,0.00,,,0.06,Wunderground v.1.15,2013-07-27 14:55:00,
2013-07-27 11:05:00,66.0,64.5,29.92,East,92,0.0,0.0,95,0.00,,,0.06,Wunderground v.1.15,2013-07-27 15:05:00,
2013-07-27 11:15:00,66.4,65.2,29.93,SW,228,1.0,2.0,96,0.00,,,0.06,Wunderground v.1.15,2013-07-27 15:15:00,
2013-07-27 11:25:00,66.6,65.4,29.92,SE,130,0.0,1.0,96,0.00,,,0.06,Wunderground v.1.15,2013-07-27 15:25:00,
2013-07-27 11:30:00,66.8,65.6,29.92,East,79,0.0,0.0,96,0.00,,,0.06,Wunderground v.1.15,2013-07-27 15:30:00,
2013-07-27 11:40:00,66.8,65.3,29.92,ESE,120,0.0,0.0,95,0.00,,,0.06,Wunderground v.1.15,2013-07-27 15:40:00,
2013-07-27 11:50:00,66.9,65.4,29.91,ENE,58,0.0,1.0,95,0.00,,,0.06,Wunderground v.1.15,2013-07-27 15:50:00,
2013-07-27 12:00:00,67.0,65.2,29.91,ESE,103,1.0,1.0,94,0.00,,,0.06,Wunderground v.1.15,2013-07-27 16:00:00,
2013-07-27 12:05:00,67.1,65.3,29.91,East,93,0.0,1.0,94,0.00,,,0.06,Wunderground v.1.15,2013-07-27 16:05:00,
2013-07-27 12:15:00,67.3,65.5,29.91,ESE,107,0.0,0.0,94,0.00,,,0.06,Wunderground v.1.15,2013-07-27 16:15:00,
2013-07-27 12:20:00,67.4,65.6,29.91,ESE,107,0.0,0.0,94,0.00,,,0.06,Wunderground v.1.15,2013-07-27 16:20:00,
2013-07-27 12:30:00,67.4,65.9,29.91,ESE,107,0.0,0.0,95,0.00,,,0.06,Wunderground v.1.15,2013-07-27 16:30:00,
2013-07-27 12:40:00,67.7,65.9,29.91,ESE,107,0.0,0.0,94,0.00,,,0.06,Wunderground v.1.15,2013-07-27 16:40:00,
2013-07-27 12:50:00,68.1,66.3,29.91,East,100,1.0,1.0,94,0.00,,,0.06,Wunderground v.1.15,2013-07-27 16:50:00,
2013-07-27 13:00:00,68.2,66.1,29.90,ENE,68,1.0,1.0,93,0.00,,,0.06,Wunderground v.1.15,2013-07-27 17:00:00,
2013-07-27 13:05:00,68.2,65.8,29.90,ENE,64,1.0,1.0,92,0.00,,,0.06,Wunderground v.1.15,2013-07-27 17:05:00,
2013-07-27 13:15:00,68.3,66.2,29.90,ENE,66,0.0,1.0,93,0.00,,,0.06,Wunderground v.1.15,2013-07-27 17:15:00,
2013-07-27 13:20:00,68.5,66.4,29.91,ENE,78,0.0,0.0,93,0.00,,,0.06,Wunderground v.1.15,2013-07-27 17:20:00,
2013-07-27 13:30:00,68.7,66.6,29.91,NE,41,0.0,1.0,93,0.00,,,0.06,Wunderground v.1.15,2013-07-27 17:30:00,
2013-07-27 13:40:00,68.9,66.8,29.89,NE,45,1.0,1.0,93,0.00,,,0.06,Wunderground v.1.15,2013-07-27 17:40:00,
2013-07-27 13:45:00,68.8,67.0,29.90,East,79,1.0,1.0,94,0.00,,,0.06,Wunderground v.1.15,2013-07-27 17:45:00,
2013-07-27 13:55:00,68.6,66.8,29.89,East,82,1.0,1.0,94,0.00,,,0.06,Wunderground v.1.15,2013-07-27 17:55:00,
2013-07-27 14:05:00,68.4,66.6,29.89,ENE,70,0.0,1.0,94,0.00,,,0.06,Wunderground v.1.15,2013-07-27 18:05:00,
2013-07-27 14:15:00,68.5,66.7,29.89,ENE,71,0.0,0.0,94,0.00,,,0.06,Wunderground v.1.15,2013-07-27 18:15:00,
2013-07-27 14:20:00,68.5,66.7,29.90,ENE,71,0.0,0.0,94,0.00,,,0.06,Wunderground v.1.15,2013-07-27 18:20:00,
2013-07-27 14:30:00,68.8,67.0,29.88,ENE,70,0.0,0.0,94,0.00,,,0.06,Wunderground v.1.15,2013-07-27 18:30:00,
2013-07-27 14:40:00,69.5,67.4,29.88,ENE,73,0.0,1.0,93,0.00,,,0.06,Wunderground v.1.15,2013-07-27 18:40:00,
2013-07-27 14:50:00,70.1,68.0,29.88,ESE,107,0.0,0.0,93,0.00,,,0.06,Wunderground v.1.15,2013-07-27 18:50:00,
2013-07-27 15:00:00,70.5,67.7,29.88,ESE,107,0.0,0.0,91,0.00,,,0.06,Wunderground v.1.15,2013-07-27 19:00:00,
2013-07-27 15:05:00,70.5,68.1,29.88,ESE,107,0.0,1.0,92,0.00,,,0.06,Wunderground v.1.15,2013-07-27 19:05:00,
2013-07-27 15:15:00,71.0,68.6,29.88,ESE,107,0.0,0.0,92,0.00,,,0.06,Wunderground v.1.15,2013-07-27 19:15:00,
2013-07-27 15:25:00,71.6,68.5,29.88,ESE,107,0.0,0.0,90,0.00,,,0.06,Wunderground v.1.15,2013-07-27 19:25:00,
2013-07-27 15:35:00,71.6,67.9,29.88,ESE,107,0.0,1.0,88,0.00,,,0.06,Wunderground v.1.15,2013-07-27 19:35:00,
2013-07-27 15:40:00,71.8,68.7,29.88,ESE,107,0.0,0.0,90,0.00,,,0.06,Wunderground v.1.15,2013-07-27 19:40:00,
2013-07-27 15:50:00,71.9,68.8,29.87,ESE,107,0.0,0.0,90,0.00,,,0.06,Wunderground v.1.15,2013-07-27 19:50:00,
2013-07-27 16:00:00,71.6,68.8,29.87,ESE,107,0.0,0.0,91,0.00,,,0.06,Wunderground v.1.15,2013-07-27 20:00:00,
2013-07-27 16:05:00,71.4,68.6,29.87,ESE,107,0.0,0.0,91,0.00,,,0.06,Wunderground v.1.15,2013-07-27 20:05:00,
2013-07-27 16:15:00,71.4,69.3,29.86,ESE,107,0.0,0.0,93,0.00,,,0.06,Wunderground v.1.15,2013-07-27 20:15:00,
2013-07-27 16:25:00,71.4,69.0,29.85,ESE,107,0.0,0.0,92,0.00,,,0.06,Wunderground v.1.15,2013-07-27 20:25:00,
2013-07-27 16:35:00,71.6,69.2,29.85,ESE,107,0.0,0.0,92,0.00,,,0.06,Wunderground v.1.15,2013-07-27 20:35:00,
2013-07-27 16:45:00,71.5,68.4,29.84,ESE,107,0.0,0.0,90,0.00,,,0.06,Wunderground v.1.15,2013-07-27 20:45:00,
2013-07-27 16:55:00,71.1,68.7,29.85,West,260,0.0,2.0,92,0.00,,,0.06,Wunderground v.1.15,2013-07-27 20:55:00,
2013-07-27 17:00:00,70.7,68.3,29.85,SW,220,1.0,1.0,92,0.00,,,0.06,Wunderground v.1.15,2013-07-27 21:00:00,
2013-07-27 17:05:00,70.6,68.2,29.84,SW,220,1.0,1.0,92,0.00,,,0.06,Wunderground v.1.15,2013-07-27 21:05:00,
2013-07-27 17:15:00,70.6,67.8,29.84,WSW,244,0.0,0.0,91,0.00,,,0.06,Wunderground v.1.15,2013-07-27 21:15:00,
2013-07-27 17:25:00,70.7,68.3,29.84,WSW,244,0.0,0.0,92,0.00,,,0.06,Wunderground v.1.15,2013-07-27 21:25:00,
2013-07-27 17:35:00,70.4,67.3,29.85,West,270,1.0,2.0,90,0.00,,,0.07,Wunderground v.1.15,2013-07-27 21:35:00,
2013-07-27 17:40:00,70.2,67.4,29.84,West,278,1.0,1.0,91,0.00,,,0.07,Wunderground v.1.15,2013-07-27 21:40:00,
2013-07-27 17:50:00,69.9,67.2,29.84,West,277,0.0,0.0,91,0.00,,,0.07,Wunderground v.1.15,2013-07-27 21:50:00,
2013-07-27 18:00:00,69.8,67.4,29.84,West,277,0.0,0.0,92,0.00,,,0.07,Wunderground v.1.15,2013-07-27 22:00:00,
2013-07-27 18:05:00,69.8,67.4,29.84,West,278,0.0,0.0,92,0.00,,,0.07,Wunderground v.1.15,2013-07-27 22:05:00,
2013-07-27 18:15:00,69.8,67.7,29.84,West,277,0.0,0.0,93,0.00,,,0.07,Wunderground v.1.15,2013-07-27 22:15:00,
2013-07-27 18:20:00,69.8,67.7,29.84,West,277,0.0,0.0,93,0.00,,,0.07,Wunderground v.1.15,2013-07-27 22:20:00,
2013-07-27 18:30:00,69.9,67.5,29.84,WSW,245,1.0,1.0,92,0.00,,,0.07,Wunderground v.1.15,2013-07-27 22:30:00,
2013-07-27 18:40:00,69.9,67.8,29.85,WSW,245,0.0,0.0,93,0.00,,,0.07,Wunderground v.1.15,2013-07-27 22:40:00,
2013-07-27 18:50:00,70.1,67.7,29.84,WSW,245,0.0,0.0,92,0.00,,,0.07,Wunderground v.1.15,2013-07-27 22:50:00,
2013-07-27 19:00:00,70.2,67.4,29.85,WSW,245,0.0,0.0,91,0.00,,,0.07,Wunderground v.1.15,2013-07-27 23:00:00,
2013-07-27 19:05:00,70.2,67.8,29.84,WSW,245,0.0,0.0,92,0.00,,,0.07,Wunderground v.1.15,2013-07-27 23:05:00,
2013-07-27 19:15:00,70.2,67.8,29.85,WSW,245,0.0,0.0,92,0.00,,,0.07,Wunderground v.1.15,2013-07-27 23:15:00,
2013-07-27 19:25:00,70.1,67.7,29.85,WSW,245,0.0,0.0,92,0.00,,,0.07,Wunderground v.1.15,2013-07-27 23:25:00,
2013-07-27 19:35:00,70.1,67.7,29.86,WSW,245,0.0,0.0,92,0.00,,,0.07,Wunderground v.1.15,2013-07-27 23:35:00,
2013-07-27 19:40:00,70.0,67.6,29.86,WSW,245,0.0,0.0,92,0.00,,,0.07,Wunderground v.1.15,2013-07-27 23:40:00,
2013-07-27 19:50:00,69.8,67.7,29.86,WSW,245,0.0,0.0,93,0.00,,,0.07,Wunderground v.1.15,2013-07-27 23:50:00,
2013-07-27 20:00:00,69.4,67.6,29.86,WSW,245,0.0,0.0,94,0.00,,,0.07,Wunderground v.1.15,2013-07-28 00:00:00,
2013-07-27 20:05:00,69.2,67.4,29.86,WSW,245,0.0,0.0,94,0.00,,,0.07,Wunderground v.1.15,2013-07-28 00:05:00,
2013-07-27 20:15:00,68.8,66.7,29.85,WSW,245,0.0,0.0,93,0.00,,,0.07,Wunderground v.1.15,2013-07-28 00:15:00,
2013-07-27 20:25:00,68.3,66.2,29.85,WSW,245,0.0,0.0,93,0.00,,,0.07,Wunderground v.1.15,2013-07-28 00:25:00,
2013-07-27 20:35:00,67.9,65.8,29.85,WSW,245,0.0,0.0,93,0.00,,,0.07,Wunderground v.1.15,2013-07-28 00:35:00,
2013-07-27 20:45:00,67.8,66.0,29.86,WSW,245,0.0,0.0,94,0.00,,,0.07,Wunderground v.1.15,2013-07-28 00:45:00,
2013-07-27 20:55:00,67.6,65.8,29.86,WSW,245,0.0,0.0,94,0.00,,,0.07,Wunderground v.1.15,2013-07-28 00:55:00,
2013-07-27 21:05:00,67.6,66.1,29.86,WSW,245,0.0,1.0,95,0.00,,,0.07,Wunderground v.1.15,2013-07-28 01:05:00,
2013-07-27 21:15:00,67.6,66.1,29.86,WSW,245,0.0,0.0,95,0.00,,,0.07,Wunderground v.1.15,2013-07-28 01:15:00,
2013-07-27 21:25:00,67.4,65.9,29.86,WSW,245,0.0,1.0,95,0.00,,,0.07,Wunderground v.1.15,2013-07-28 01:25:00,
2013-07-27 21:35:00,67.4,65.9,29.86,WSW,245,0.0,0.0,95,0.00,,,0.07,Wunderground v.1.15,2013-07-28 01:35:00,
2013-07-27 21:45:00,67.3,65.8,29.86,WSW,245,0.0,0.0,95,0.00,,,0.07,Wunderground v.1.15,2013-07-28 01:45:00,
2013-07-27 21:50:00,67.2,65.7,29.86,WSW,245,0.0,0.0,95,0.00,,,0.07,Wunderground v.1.15,2013-07-28 01:50:00,
2013-07-27 22:00:00,67.2,65.7,29.86,WSW,251,0.0,0.0,95,0.00,,,0.07,Wunderground v.1.15,2013-07-28 02:00:00,
2013-07-27 22:05:00,67.1,65.6,29.86,WSW,251,0.0,0.0,95,0.00,,,0.07,Wunderground v.1.15,2013-07-28 02:05:00,
2013-07-27 22:15:00,66.8,65.3,29.86,WSW,251,0.0,0.0,95,0.00,,,0.07,Wunderground v.1.15,2013-07-28 02:15:00,
2013-07-27 22:25:00,66.6,65.4,29.86,WSW,251,0.0,0.0,96,0.00,,,0.07,Wunderground v.1.15,2013-07-28 02:25:00,
2013-07-27 22:35:00,66.5,65.3,29.86,WSW,252,0.0,0.0,96,0.00,,,0.07,Wunderground v.1.15,2013-07-28 02:35:00,
2013-07-27 22:45:00,66.3,65.1,29.86,WSW,252,0.0,0.0,96,0.00,,,0.07,Wunderground v.1.15,2013-07-28 02:45:00,
2013-07-27 22:50:00,66.3,65.1,29.86,WSW,252,0.0,0.0,96,0.00,,,0.07,Wunderground v.1.15,2013-07-28 02:50:00,
2013-07-27 23:00:00,66.2,65.0,29.86,WSW,252,0.0,0.0,96,0.00,,,0.07,Wunderground v.1.15,2013-07-28 03:00:00,
2013-07-27 23:05:00,66.1,64.9,29.86,WSW,252,0.0,0.0,96,0.00,,,0.07,Wunderground v.1.15,2013-07-28 03:05:00,
2013-07-27 23:15:00,66.0,64.8,29.86,WSW,252,0.0,0.0,96,0.00,,,0.07,Wunderground v.1.15,2013-07-28 03:15:00,
2013-07-27 23:20:00,65.9,64.7,29.86,WSW,252,0.0,0.0,96,0.00,,,0.07,Wunderground v.1.15,2013-07-28 03:20:00,
2013-07-27 23:30:00,65.7,64.5,29.85,WSW,252,0.0,0.0,96,0.00,,,0.07,Wunderground v.1.15,2013-07-28 03:30:00,
2013-07-27 23:40:00,65.7,64.8,29.85,WSW,252,0.0,0.0,97,0.00,,,0.07,Wunderground v.1.15,2013-07-28 03:40:00,
2013-07-27 23:45:00,65.7,64.5,29.85,WSW,252,0.0,0.0,96,0.00,,,0.07,Wunderground v.1.15,2013-07-28 03:45:00,
2013-07-27 23:55:00,65.7,64.8,29.85,WSW,252,0.0,0.0,97,0.00,,,0.07,Wunderground v.1.15,2013-07-28 03:55:00,